createdAt,value
2018-03-04T00:00:52.612Z,83.78
2018-03-04T00:01:52.602Z,83.88
2018-03-04T00:02:52.536Z,83.78
2018-03-04T00:03:52.505Z,83.40
2018-03-04T00:04:52.478Z,83.40
2018-03-04T00:05:52.447Z,83.59
2018-03-04T00:06:52.413Z,84.26
2018-03-04T00:07:52.388Z,84.07
2018-03-04T00:08:52.342Z,83.97
2018-03-04T00:09:52.305Z,83.97
2018-03-04T00:10:52.276Z,84.26
2018-03-04T00:11:52.243Z,83.88
2018-03-04T00:12:52.218Z,83.97
2018-03-04T00:13:52.199Z,83.78
2018-03-04T00:14:52.138Z,84.07
2018-03-04T00:15:52.110Z,83.97
2018-03-04T00:16:52.093Z,83.88
2018-03-04T00:17:52.045Z,83.78
2018-03-04T00:18:51.997Z,84.16
2018-03-04T00:19:51.986Z,83.69
2018-03-04T00:20:51.937Z,83.97
2018-03-04T00:21:52.018Z,84.16
2018-03-04T00:22:51.885Z,84.07
2018-03-04T00:23:51.833Z,83.88
2018-03-04T00:24:51.823Z,83.88
2018-03-04T00:25:51.820Z,83.97
2018-03-04T00:26:51.735Z,84.54
2018-03-04T00:27:51.796Z,84.82
2018-03-04T00:28:51.683Z,84.26
2018-03-04T00:29:51.627Z,84.45
2018-03-04T00:30:51.628Z,84.73
2018-03-04T00:31:51.587Z,84.54
2018-03-04T00:32:51.527Z,84.64
2018-03-04T00:33:51.518Z,84.64
2018-03-04T00:34:51.457Z,84.64
2018-03-04T00:35:51.440Z,84.45
2018-03-04T00:36:51.414Z,84.54
2018-03-04T00:37:51.358Z,84.64
2018-03-04T00:38:51.349Z,84.45
2018-03-04T00:39:51.392Z,84.64
2018-03-04T00:40:51.261Z,84.64
2018-03-04T00:41:51.286Z,84.35
2018-03-04T00:42:51.294Z,84.45
2018-03-04T00:43:52.076Z,85.11
2018-03-04T00:44:51.149Z,84.64
2018-03-04T00:45:51.216Z,84.16
2018-03-04T00:46:51.068Z,84.64
2018-03-04T00:47:51.179Z,84.54
2018-03-04T00:48:51.053Z,84.07
2018-03-04T00:49:50.978Z,84.16
2018-03-04T00:50:50.936Z,84.26
2018-03-04T00:51:50.981Z,84.54
2018-03-04T00:52:50.956Z,84.35
2018-03-04T00:53:50.974Z,84.64
2018-03-04T00:54:50.932Z,84.64
2018-03-04T00:55:50.762Z,84.92
2018-03-04T00:56:50.750Z,85.11
2018-03-04T00:57:50.764Z,84.54
2018-03-04T00:58:50.785Z,84.54
2018-03-04T00:59:50.679Z,84.54
2018-03-04T01:00:50.604Z,84.73
2018-03-04T01:01:50.542Z,84.54
2018-03-04T01:02:50.876Z,84.73
2018-03-04T01:03:50.489Z,84.54
2018-03-04T01:04:50.436Z,84.54
2018-03-04T01:05:50.405Z,84.54
2018-03-04T01:06:50.388Z,84.73
2018-03-04T01:07:50.339Z,84.64
2018-03-04T01:08:50.339Z,84.73
2018-03-04T01:09:50.278Z,84.16
2018-03-04T01:10:50.249Z,84.35
2018-03-04T01:11:50.237Z,83.88
2018-03-04T01:12:50.173Z,83.97
2018-03-04T01:13:50.143Z,84.26
2018-03-04T01:14:50.105Z,83.97
2018-03-04T01:15:50.077Z,84.16
2018-03-04T01:16:50.072Z,84.45
2018-03-04T01:17:50.003Z,84.26
2018-03-04T01:18:49.990Z,83.78
2018-03-04T01:19:49.940Z,84.45
2018-03-04T01:20:49.921Z,85.01
2018-03-04T01:21:49.889Z,84.54
2018-03-04T01:22:49.847Z,84.26
2018-03-04T01:23:49.818Z,84.64
2018-03-04T01:24:49.792Z,84.45
2018-03-04T01:25:49.746Z,84.16
2018-03-04T01:26:49.738Z,84.07
2018-03-04T01:27:49.675Z,84.54
2018-03-04T01:28:49.639Z,84.16
2018-03-04T01:29:49.643Z,84.35
2018-03-04T01:30:49.574Z,84.64
2018-03-04T01:31:50.082Z,84.45
2018-03-04T01:32:49.496Z,84.45
2018-03-04T01:33:49.487Z,85.30
2018-03-04T01:34:49.436Z,84.54
2018-03-04T01:35:49.397Z,84.35
2018-03-04T01:36:49.392Z,83.97
2018-03-04T01:37:49.414Z,84.54
2018-03-04T01:38:49.310Z,84.64
2018-03-04T01:39:49.261Z,84.64
2018-03-04T01:40:49.225Z,84.07
2018-03-04T01:41:49.213Z,84.45
2018-03-04T01:42:49.184Z,84.45
2018-03-04T01:43:49.149Z,84.35
2018-03-04T01:44:49.128Z,83.97
2018-03-04T01:45:49.074Z,84.45
2018-03-04T01:46:49.045Z,83.78
2018-03-04T01:47:49.007Z,83.78
2018-03-04T01:48:48.974Z,84.54
2018-03-04T01:49:48.943Z,83.97
2018-03-04T01:50:48.890Z,84.07
2018-03-04T01:51:48.923Z,84.07
2018-03-04T01:52:48.828Z,84.45
2018-03-04T01:53:48.799Z,84.64
2018-03-04T01:54:48.805Z,84.54
2018-03-04T01:55:48.794Z,84.54
2018-03-04T01:56:48.724Z,84.64
2018-03-04T01:57:48.657Z,84.45
2018-03-04T01:58:48.633Z,83.97
2018-03-04T01:59:48.602Z,84.26
2018-03-04T02:00:48.553Z,83.97
2018-03-04T02:01:48.535Z,84.26
2018-03-04T02:02:48.490Z,84.26
2018-03-04T02:03:48.474Z,84.07
2018-03-04T02:04:48.436Z,84.26
2018-03-04T02:05:48.435Z,84.16
2018-03-04T02:06:48.369Z,83.97
2018-03-04T02:07:48.324Z,83.88
2018-03-04T02:08:48.300Z,83.97
2018-03-04T02:09:48.293Z,84.07
2018-03-04T02:10:48.215Z,84.26
2018-03-04T02:11:48.198Z,84.64
2018-03-04T02:12:48.172Z,84.35
2018-03-04T02:13:48.193Z,84.64
2018-03-04T02:14:48.125Z,84.45
2018-03-04T02:15:48.067Z,84.26
2018-03-04T02:16:48.029Z,85.30
2018-03-04T02:17:47.978Z,85.01
2018-03-04T02:18:47.989Z,84.92
2018-03-04T02:19:47.924Z,84.92
2018-03-04T02:20:47.886Z,85.20
2018-03-04T02:21:47.854Z,85.20
2018-03-04T02:22:47.860Z,85.20
2018-03-04T02:23:47.797Z,85.49
2018-03-04T02:24:47.773Z,85.39
2018-03-04T02:25:47.746Z,85.39
2018-03-04T02:26:47.692Z,85.68
2018-03-04T02:27:47.787Z,85.39
2018-03-04T02:28:47.620Z,85.86
2018-03-04T02:29:47.613Z,85.86
2018-03-04T02:30:47.585Z,86.15
2018-03-04T02:31:47.512Z,86.24
2018-03-04T02:32:47.499Z,85.68
2018-03-04T02:33:47.456Z,85.58
2018-03-04T02:34:47.438Z,85.20
2018-03-04T02:35:47.422Z,85.20
2018-03-04T02:36:47.348Z,85.39
2018-03-04T02:37:47.342Z,85.30
2018-03-04T02:38:47.373Z,85.30
2018-03-04T02:39:47.270Z,85.01
2018-03-04T02:40:47.243Z,84.82
2018-03-04T02:41:47.191Z,85.11
2018-03-04T02:42:47.188Z,85.11
2018-03-04T02:43:47.126Z,85.11
2018-03-04T02:44:47.092Z,84.82
2018-03-04T02:45:47.093Z,85.20
2018-03-04T02:46:47.011Z,85.20
2018-03-04T02:47:46.995Z,85.30
2018-03-04T02:48:46.954Z,85.68
2018-03-04T02:49:46.947Z,85.20
2018-03-04T02:50:46.907Z,85.39
2018-03-04T02:51:46.846Z,85.77
2018-03-04T02:52:46.831Z,85.58
2018-03-04T02:53:46.777Z,85.68
2018-03-04T02:54:46.760Z,85.39
2018-03-04T02:55:46.727Z,85.58
2018-03-04T02:56:46.689Z,85.58
2018-03-04T02:57:46.677Z,85.39
2018-03-04T02:58:46.610Z,85.86
2018-03-04T02:59:46.607Z,86.24
2018-03-04T03:00:46.574Z,85.77
2018-03-04T03:01:46.568Z,85.68
2018-03-04T03:02:46.486Z,86.24
2018-03-04T03:03:46.441Z,86.24
2018-03-04T03:04:46.415Z,85.77
2018-03-04T03:05:46.387Z,86.05
2018-03-04T03:06:46.360Z,86.05
2018-03-04T03:07:46.324Z,85.86
2018-03-04T03:08:46.277Z,86.15
2018-03-04T03:09:46.248Z,86.05
2018-03-04T03:10:46.241Z,85.96
2018-03-04T03:11:46.205Z,85.39
2018-03-04T03:12:46.247Z,85.86
2018-03-04T03:13:46.116Z,85.86
2018-03-04T03:14:46.081Z,85.39
2018-03-04T03:15:46.087Z,85.49
2018-03-04T03:16:46.005Z,85.39
2018-03-04T03:17:46.000Z,85.39
2018-03-04T03:18:45.963Z,85.39
2018-03-04T03:19:45.909Z,85.43
2018-03-04T03:20:45.895Z,85.62
2018-03-04T03:21:45.843Z,85.62
2018-03-04T03:22:45.816Z,85.15
2018-03-04T03:23:45.797Z,85.34
2018-03-04T03:24:45.738Z,85.43
2018-03-04T03:25:45.725Z,85.34
2018-03-04T03:26:45.666Z,85.24
2018-03-04T03:27:45.660Z,85.24
2018-03-04T03:28:45.638Z,85.43
2018-03-04T03:29:45.572Z,85.34
2018-03-04T03:30:45.567Z,85.05
2018-03-04T03:31:45.553Z,85.05
2018-03-04T03:32:45.495Z,84.96
2018-03-04T03:33:45.478Z,84.68
2018-03-04T03:34:45.422Z,84.68
2018-03-04T03:35:45.396Z,85.24
2018-03-04T03:36:45.378Z,85.05
2018-03-04T03:37:45.310Z,84.96
2018-03-04T03:38:45.292Z,85.34
2018-03-04T03:39:45.254Z,84.49
2018-03-04T03:40:45.220Z,84.77
2018-03-04T03:41:45.228Z,85.05
2018-03-04T03:42:45.147Z,84.68
2018-03-04T03:43:45.121Z,85.43
2018-03-04T03:44:45.087Z,84.96
2018-03-04T03:45:45.072Z,85.86
2018-03-04T03:46:45.052Z,85.96
2018-03-04T03:47:44.978Z,86.00
2018-03-04T03:48:44.972Z,86.00
2018-03-04T03:49:44.916Z,85.96
2018-03-04T03:50:44.932Z,86.52
2018-03-04T03:51:44.855Z,86.43
2018-03-04T03:52:44.826Z,86.52
2018-03-04T03:53:44.789Z,85.86
2018-03-04T03:54:44.759Z,86.52
2018-03-04T03:55:44.718Z,86.43
2018-03-04T03:56:44.687Z,86.43
2018-03-04T03:57:44.660Z,86.29
2018-03-04T03:58:44.616Z,86.66
2018-03-04T03:59:44.604Z,86.19
2018-03-04T04:00:44.572Z,86.00
2018-03-04T04:01:44.516Z,85.43
2018-03-04T04:02:44.491Z,85.24
2018-03-04T04:03:44.499Z,85.62
2018-03-04T04:04:44.454Z,85.43
2018-03-04T04:05:44.404Z,85.43
2018-03-04T04:06:44.354Z,85.53
2018-03-04T04:07:44.331Z,85.24
2018-03-04T04:08:44.287Z,85.53
2018-03-04T04:09:44.296Z,86.47
2018-03-04T04:10:44.228Z,85.72
2018-03-04T04:11:44.203Z,86.19
2018-03-04T04:12:44.195Z,85.91
2018-03-04T04:13:44.126Z,85.91
2018-03-04T04:14:44.102Z,86.47
2018-03-04T04:15:44.054Z,86.66
2018-03-04T04:16:44.038Z,86.76
2018-03-04T04:17:44.013Z,86.94
2018-03-04T04:18:43.954Z,86.94
2018-03-04T04:19:43.974Z,87.32
2018-03-04T04:20:43.910Z,87.79
2018-03-04T04:21:43.891Z,87.79
2018-03-04T04:22:43.817Z,88.17
2018-03-04T04:23:43.804Z,88.65
2018-03-04T04:24:43.764Z,89.40
2018-03-04T04:25:43.770Z,89.69
2018-03-04T04:26:43.708Z,89.97
2018-03-04T04:27:43.680Z,89.78
2018-03-04T04:28:43.633Z,89.78
2018-03-04T04:29:43.598Z,90.44
2018-03-04T04:30:43.575Z,90.44
2018-03-04T04:31:43.560Z,89.87
2018-03-04T04:32:43.493Z,90.06
2018-03-04T04:33:43.463Z,90.35
2018-03-04T04:34:43.438Z,90.91
2018-03-04T04:35:43.414Z,90.54
2018-03-04T04:36:43.358Z,90.63
2018-03-04T04:37:43.344Z,90.73
2018-03-04T04:38:43.335Z,91.01
2018-03-04T04:39:43.304Z,90.73
2018-03-04T04:40:43.231Z,91.67
2018-03-04T04:41:43.194Z,91.48
2018-03-04T04:42:43.158Z,91.48
2018-03-04T04:43:43.141Z,91.67
2018-03-04T04:44:43.104Z,91.96
2018-03-04T04:45:43.584Z,91.96
2018-03-04T04:46:43.028Z,92.43
2018-03-04T04:47:42.998Z,92.61
2018-03-04T04:48:42.966Z,91.96
2018-03-04T04:49:42.949Z,92.43
2018-03-04T04:50:42.905Z,91.77
2018-03-04T04:51:42.898Z,92.24
2018-03-04T04:52:42.849Z,92.24
2018-03-04T04:53:42.814Z,92.43
2018-03-04T04:54:42.775Z,92.52
2018-03-04T04:55:42.745Z,92.61
2018-03-04T04:56:42.708Z,92.99
2018-03-04T04:57:42.689Z,93.09
2018-03-04T04:58:42.670Z,93.09
2018-03-04T04:59:42.622Z,93.09
2018-03-04T05:00:42.590Z,93.18
2018-03-04T05:01:42.579Z,93.18
2018-03-04T05:02:42.513Z,93.37
2018-03-04T05:03:42.497Z,93.37
2018-03-04T05:04:42.448Z,92.61
2018-03-04T05:05:42.416Z,93.09
2018-03-04T05:06:42.371Z,93.66
2018-03-04T05:07:42.352Z,93.18
2018-03-04T05:08:42.361Z,93.56
2018-03-04T05:09:42.276Z,93.66
2018-03-04T05:10:42.265Z,93.47
2018-03-04T05:11:42.232Z,93.47
2018-03-04T05:12:42.294Z,93.47
2018-03-04T05:13:42.163Z,93.28
2018-03-04T05:14:42.251Z,93.28
2018-03-04T05:15:42.078Z,92.99
2018-03-04T05:16:42.047Z,93.37
2018-03-04T05:17:42.003Z,93.37
2018-03-04T05:18:41.992Z,93.09
2018-03-04T05:19:41.943Z,93.18
2018-03-04T05:20:41.921Z,93.37
2018-03-04T05:21:41.885Z,92.71
2018-03-04T05:22:41.847Z,93.37
2018-03-04T05:23:41.827Z,93.66
2018-03-04T05:24:41.774Z,93.18
2018-03-04T05:25:41.777Z,93.66
2018-03-04T05:26:41.731Z,93.75
2018-03-04T05:27:41.681Z,93.18
2018-03-04T05:28:41.667Z,93.09
2018-03-04T05:29:41.615Z,93.75
2018-03-04T05:30:41.585Z,93.84
2018-03-04T05:31:41.576Z,93.84
2018-03-04T05:32:41.514Z,93.09
2018-03-04T05:33:41.489Z,93.18
2018-03-04T05:34:41.449Z,93.37
2018-03-04T05:35:41.416Z,93.37
2018-03-04T05:36:41.401Z,93.09
2018-03-04T05:37:41.354Z,92.80
2018-03-04T05:38:41.329Z,93.37
2018-03-04T05:39:41.279Z,92.61
2018-03-04T05:40:41.255Z,92.71
2018-03-04T05:41:41.262Z,92.99
2018-03-04T05:42:41.182Z,92.80
2018-03-04T05:43:41.165Z,93.18
2018-03-04T05:44:41.132Z,93.56
2018-03-04T05:45:41.082Z,93.09
2018-03-04T05:46:41.078Z,93.09
2018-03-04T05:47:41.049Z,93.37
2018-03-04T05:48:41.015Z,93.28
2018-03-04T05:49:40.967Z,93.56
2018-03-04T05:50:40.924Z,93.37
2018-03-04T05:51:40.906Z,93.37
2018-03-04T05:52:40.859Z,93.18
2018-03-04T05:53:40.830Z,92.99
2018-03-04T05:54:40.780Z,93.28
2018-03-04T05:55:40.755Z,93.37
2018-03-04T05:56:40.732Z,93.37
2018-03-04T05:57:40.723Z,93.84
2018-03-04T05:58:40.692Z,93.84
2018-03-04T05:59:40.676Z,93.84
2018-03-04T06:00:40.601Z,93.66
2018-03-04T06:01:40.604Z,93.56
2018-03-04T06:02:40.535Z,93.28
2018-03-04T06:03:40.501Z,93.56
2018-03-04T06:04:40.472Z,93.66
2018-03-04T06:05:40.450Z,93.28
2018-03-04T06:06:40.408Z,93.66
2018-03-04T06:07:40.379Z,93.66
2018-03-04T06:08:40.320Z,93.66
2018-03-04T06:09:40.312Z,93.56
2018-03-04T06:10:40.262Z,93.94
2018-03-04T06:11:40.228Z,93.56
2018-03-04T06:12:40.255Z,93.18
2018-03-04T06:13:40.156Z,93.09
2018-03-04T06:14:40.145Z,93.28
2018-03-04T06:15:40.098Z,92.99
2018-03-04T06:16:40.060Z,93.56
2018-03-04T06:17:40.058Z,93.37
2018-03-04T06:18:39.995Z,93.56
2018-03-04T06:19:40.003Z,93.66
2018-03-04T06:20:39.980Z,93.56
2018-03-04T06:21:37.755Z,93.84
2018-03-04T06:22:37.709Z,94.13
2018-03-04T06:24:30.636Z,93.56
2018-03-04T06:25:30.599Z,93.75
2018-03-04T06:27:23.485Z,93.66
2018-03-04T06:28:23.418Z,93.75
2018-03-04T06:30:16.332Z,93.37
2018-03-04T06:31:16.261Z,93.47
2018-03-04T06:33:09.160Z,93.84
2018-03-04T06:34:09.123Z,94.32
2018-03-04T06:35:09.083Z,94.22
2018-03-04T06:36:09.070Z,93.47
2018-03-04T06:37:09.015Z,93.47
2018-03-04T06:38:08.988Z,93.66
2018-03-04T06:39:08.962Z,93.28
2018-03-04T06:40:08.931Z,93.37
2018-03-04T06:41:08.882Z,93.47
2018-03-04T06:42:08.856Z,93.47
2018-03-04T06:43:08.824Z,93.56
2018-03-04T06:44:08.782Z,93.56
2018-03-04T06:45:08.760Z,93.66
2018-03-04T06:46:08.724Z,93.47
2018-03-04T06:47:08.691Z,93.09
2018-03-04T06:48:08.659Z,92.80
2018-03-04T06:49:08.623Z,92.52
2018-03-04T06:50:08.611Z,93.66
2018-03-04T06:51:08.558Z,92.99
2018-03-04T06:52:09.161Z,92.80
2018-03-04T06:53:08.489Z,92.90
2018-03-04T06:54:08.455Z,93.09
2018-03-04T06:55:08.487Z,92.99
2018-03-04T06:56:08.391Z,93.37
2018-03-04T06:57:08.360Z,93.18
2018-03-04T06:58:08.329Z,92.99
2018-03-04T06:59:08.298Z,93.37
2018-03-04T07:00:08.296Z,93.28
2018-03-04T07:01:08.231Z,93.18
2018-03-04T07:02:08.198Z,93.37
2018-03-04T07:03:08.185Z,93.37
2018-03-04T07:04:08.130Z,93.47
2018-03-04T07:05:08.104Z,93.18
2018-03-04T07:06:08.070Z,93.37
2018-03-04T07:07:08.033Z,93.23
2018-03-04T07:08:08.018Z,92.99
2018-03-04T07:09:07.977Z,93.18
2018-03-04T07:10:07.938Z,92.90
2018-03-04T07:11:07.907Z,92.90
2018-03-04T07:12:07.870Z,92.24
2018-03-04T07:13:07.844Z,92.61
2018-03-04T07:14:07.803Z,92.57
2018-03-04T07:15:07.778Z,92.29
2018-03-04T07:16:07.757Z,92.57
2018-03-04T07:17:07.720Z,92.38
2018-03-04T07:18:07.681Z,92.19
2018-03-04T07:19:07.671Z,91.91
2018-03-04T07:20:07.605Z,91.91
2018-03-04T07:21:07.592Z,92.10
2018-03-04T07:22:07.555Z,91.81
2018-03-04T07:23:07.509Z,92.00
2018-03-04T07:24:07.505Z,91.43
2018-03-04T07:25:07.448Z,91.43
2018-03-04T07:26:07.419Z,92.00
2018-03-04T07:27:07.381Z,91.62
2018-03-04T07:28:07.359Z,92.00
2018-03-04T07:29:07.334Z,91.72
2018-03-04T07:30:07.289Z,91.72
2018-03-04T07:31:07.250Z,91.81
2018-03-04T07:32:07.228Z,91.62
2018-03-04T07:33:07.188Z,91.72
2018-03-04T07:34:07.160Z,91.91
2018-03-04T07:35:07.186Z,91.81
2018-03-04T07:36:07.088Z,92.00
2018-03-04T07:37:07.088Z,92.10
2018-03-04T07:38:07.024Z,91.91
2018-03-04T07:39:07.003Z,92.00
2018-03-04T07:40:06.963Z,92.00
2018-03-04T07:41:06.940Z,92.00
2018-03-04T07:42:06.904Z,92.00
2018-03-04T07:43:06.869Z,91.72
2018-03-04T07:44:06.850Z,91.81
2018-03-04T07:45:06.808Z,91.53
2018-03-04T07:46:06.796Z,91.72
2018-03-04T07:47:06.794Z,91.91
2018-03-04T07:48:06.755Z,91.43
2018-03-04T07:49:06.718Z,91.72
2018-03-04T07:50:06.669Z,91.72
2018-03-04T07:51:06.608Z,91.72
2018-03-04T07:52:06.588Z,91.53
2018-03-04T07:53:06.543Z,91.53
2018-03-04T07:54:06.522Z,91.91
2018-03-04T07:55:06.517Z,91.91
2018-03-04T07:56:06.452Z,92.10
2018-03-04T07:57:06.412Z,91.81
2018-03-04T07:58:06.384Z,91.62
2018-03-04T07:59:06.359Z,92.00
2018-03-04T08:00:06.357Z,91.05
2018-03-04T08:01:06.354Z,91.15
2018-03-04T08:02:06.314Z,91.86
2018-03-04T08:03:06.264Z,91.62
2018-03-04T08:04:06.199Z,91.20
2018-03-04T08:05:06.171Z,91.10
2018-03-04T08:06:06.162Z,90.72
2018-03-04T08:07:06.098Z,90.72
2018-03-04T08:08:06.067Z,91.10
2018-03-04T08:09:06.177Z,91.39
2018-03-04T08:10:06.010Z,90.72
2018-03-04T08:11:05.984Z,91.10
2018-03-04T08:12:05.952Z,91.10
2018-03-04T08:13:05.926Z,90.82
2018-03-04T08:14:05.919Z,90.44
2018-03-04T08:15:05.849Z,90.91
2018-03-04T08:16:05.872Z,91.10
2018-03-04T08:17:05.786Z,91.29
2018-03-04T08:18:05.749Z,91.29
2018-03-04T08:19:05.726Z,91.39
2018-03-04T08:20:05.745Z,91.58
2018-03-04T08:21:05.670Z,91.96
2018-03-04T08:22:05.638Z,90.91
2018-03-04T08:23:05.596Z,92.05
2018-03-04T08:24:05.594Z,91.58
2018-03-04T08:25:05.530Z,91.77
2018-03-04T08:26:05.511Z,91.01
2018-03-04T08:27:05.494Z,91.29
2018-03-04T08:28:05.451Z,91.01
2018-03-04T08:29:05.405Z,91.29
2018-03-04T08:30:05.384Z,91.39
2018-03-04T08:31:05.342Z,91.20
2018-03-04T08:32:05.328Z,91.86
2018-03-04T08:33:05.278Z,91.67
2018-03-04T08:34:05.297Z,91.20
2018-03-04T08:35:05.260Z,90.91
2018-03-04T08:36:05.259Z,91.10
2018-03-04T08:37:05.167Z,91.39
2018-03-04T08:38:05.158Z,90.72
2018-03-04T08:39:05.088Z,90.91
2018-03-04T08:40:05.096Z,90.72
2018-03-04T08:41:05.063Z,90.82
2018-03-04T08:42:04.995Z,90.53
2018-03-04T08:43:04.968Z,91.10
2018-03-04T08:44:04.943Z,91.10
2018-03-04T08:45:04.906Z,91.01
2018-03-04T08:46:04.872Z,90.16
2018-03-04T08:47:07.438Z,90.25
2018-03-04T08:48:04.812Z,90.34
2018-03-04T08:49:04.784Z,90.06
2018-03-04T08:50:04.738Z,90.25
2018-03-04T08:51:04.729Z,90.06
2018-03-04T08:52:04.671Z,91.01
2018-03-04T08:53:04.655Z,91.05
2018-03-04T08:54:04.671Z,90.67
2018-03-04T08:55:04.627Z,90.06
2018-03-04T08:56:04.577Z,90.44
2018-03-04T08:57:04.588Z,91.10
2018-03-04T08:58:04.491Z,90.77
2018-03-04T08:59:04.452Z,90.67
2018-03-04T09:00:04.428Z,89.54
2018-03-04T09:01:04.396Z,89.73
2018-03-04T09:02:04.421Z,90.20
2018-03-04T09:03:04.322Z,90.01
2018-03-04T09:04:04.315Z,89.82
2018-03-04T09:05:04.277Z,90.11
2018-03-04T09:06:04.234Z,89.82
2018-03-04T09:07:04.251Z,90.01
2018-03-04T09:08:04.182Z,89.82
2018-03-04T09:09:04.153Z,90.11
2018-03-04T09:10:04.151Z,90.20
2018-03-04T09:11:04.085Z,90.77
2018-03-04T09:12:04.074Z,90.20
2018-03-04T09:13:04.020Z,89.82
2018-03-04T09:14:03.993Z,90.01
2018-03-04T09:15:03.968Z,89.82
2018-03-04T09:16:03.938Z,89.63
2018-03-04T09:17:03.899Z,89.82
2018-03-04T09:18:03.917Z,89.63
2018-03-04T09:19:03.838Z,90.01
2018-03-04T09:20:03.800Z,90.01
2018-03-04T09:21:03.779Z,89.63
2018-03-04T09:22:03.731Z,89.82
2018-03-04T09:23:03.747Z,89.82
2018-03-04T09:24:03.688Z,89.63
2018-03-04T09:25:03.656Z,89.73
2018-03-04T09:26:03.728Z,90.01
2018-03-04T09:27:03.590Z,89.54
2018-03-04T09:28:03.605Z,89.44
2018-03-04T09:29:03.563Z,90.01
2018-03-04T09:30:03.492Z,89.63
2018-03-04T09:31:03.580Z,89.82
2018-03-04T09:32:03.534Z,89.82
2018-03-04T09:33:03.425Z,89.44
2018-03-04T09:34:03.485Z,89.68
2018-03-04T09:35:03.349Z,89.63
2018-03-04T09:36:03.413Z,88.45
2018-03-04T09:37:03.297Z,88.64
2018-03-04T09:38:03.334Z,88.73
2018-03-04T09:39:03.272Z,88.45
2018-03-04T09:40:03.350Z,88.17
2018-03-04T09:41:03.178Z,88.07
2018-03-04T09:42:03.194Z,86.93
2018-03-04T09:43:03.165Z,86.79
2018-03-04T09:44:03.169Z,86.41
2018-03-04T09:45:03.052Z,85.93
2018-03-04T09:46:03.053Z,85.46
2018-03-04T09:47:03.021Z,85.08
2018-03-04T09:48:02.980Z,84.61
2018-03-04T09:49:03.092Z,84.89
2018-03-04T09:50:02.935Z,84.70
2018-03-04T09:51:03.751Z,84.32
2018-03-04T09:52:02.849Z,84.70
2018-03-04T09:53:02.804Z,84.13
2018-03-04T09:54:02.757Z,84.51
2018-03-04T09:55:02.892Z,84.23
2018-03-04T09:56:02.820Z,83.94
2018-03-04T09:57:02.761Z,84.08
2018-03-04T09:58:02.672Z,83.98
2018-03-04T09:59:02.649Z,83.89
2018-03-04T10:00:02.637Z,83.42
2018-03-04T10:01:02.584Z,83.51
2018-03-04T10:02:02.560Z,83.61
2018-03-04T10:03:02.640Z,83.42
2018-03-04T10:04:02.471Z,83.51
2018-03-04T10:05:02.482Z,83.42
2018-03-04T10:06:02.433Z,83.42
2018-03-04T10:07:02.429Z,83.61
2018-03-04T10:08:02.410Z,83.32
2018-03-04T10:09:02.340Z,83.70
2018-03-04T10:10:02.322Z,84.27
2018-03-04T10:11:02.265Z,84.27
2018-03-04T10:12:02.274Z,84.08
2018-03-04T10:13:02.251Z,84.08
2018-03-04T10:14:02.163Z,83.89
2018-03-04T10:15:02.181Z,83.42
2018-03-04T10:16:02.145Z,84.08
2018-03-04T10:17:02.096Z,84.17
2018-03-04T10:18:02.094Z,84.84
2018-03-04T10:19:02.054Z,84.65
2018-03-04T10:20:02.022Z,84.74
2018-03-04T10:21:01.972Z,84.46
2018-03-04T10:22:01.984Z,84.36
2018-03-04T10:23:01.941Z,84.36
2018-03-04T10:24:01.914Z,84.65
2018-03-04T10:25:01.853Z,84.84
2018-03-04T10:26:01.825Z,85.03
2018-03-04T10:27:01.863Z,84.46
2018-03-04T10:28:01.977Z,84.17
2018-03-04T10:29:01.750Z,84.17
2018-03-04T10:30:01.715Z,83.46
2018-03-04T10:31:01.692Z,83.17
2018-03-04T10:32:01.717Z,82.79
2018-03-04T10:33:01.601Z,82.60
2018-03-04T10:34:01.604Z,82.51
2018-03-04T10:35:01.582Z,81.85
2018-03-04T10:36:01.507Z,81.75
2018-03-04T10:37:01.505Z,81.27
2018-03-04T10:38:01.468Z,81.47
2018-03-04T10:39:01.428Z,81.37
2018-03-04T10:40:01.496Z,81.75
2018-03-04T10:41:01.443Z,82.13
2018-03-04T10:42:01.359Z,82.36
2018-03-04T10:43:01.338Z,81.56
2018-03-04T10:44:01.275Z,81.18
2018-03-04T10:45:01.349Z,81.51
2018-03-04T10:46:01.247Z,81.41
2018-03-04T10:47:01.187Z,81.13
2018-03-04T10:48:01.183Z,80.56
2018-03-04T10:49:01.187Z,80.84
2018-03-04T10:50:01.103Z,80.37
2018-03-04T10:51:01.150Z,80.65
2018-03-04T10:52:01.053Z,80.18
2018-03-04T10:53:01.076Z,80.18
2018-03-04T10:54:01.033Z,80.08
2018-03-04T10:55:01.002Z,80.75
2018-03-04T10:56:00.959Z,80.65
2018-03-04T10:57:00.985Z,81.04
2018-03-04T10:58:00.913Z,80.56
2018-03-04T10:59:00.859Z,80.94
2018-03-04T11:00:00.863Z,80.98
2018-03-04T11:01:00.837Z,79.90
2018-03-04T11:02:00.831Z,79.74
2018-03-04T11:03:00.780Z,79.84
2018-03-04T11:04:00.760Z,79.27
2018-03-04T11:05:00.681Z,78.42
2018-03-04T11:06:00.680Z,79.46
2018-03-04T11:07:00.626Z,79.08
2018-03-04T11:08:00.589Z,79.08
2018-03-04T11:09:00.581Z,79.84
2018-03-04T11:10:00.532Z,79.46
2018-03-04T11:11:00.514Z,79.84
2018-03-04T11:12:00.500Z,80.03
2018-03-04T11:13:00.443Z,79.46
2018-03-04T11:14:00.508Z,79.55
2018-03-04T11:15:00.422Z,79.17
2018-03-04T11:16:00.416Z,79.36
2018-03-04T11:17:00.342Z,79.65
2018-03-04T11:18:00.346Z,80.03
2018-03-04T11:19:00.278Z,80.32
2018-03-04T11:20:00.253Z,80.79
2018-03-04T11:21:00.263Z,80.79
2018-03-04T11:22:00.231Z,81.36
2018-03-04T11:23:00.212Z,81.04
2018-03-04T11:24:00.259Z,80.79
2018-03-04T11:25:00.110Z,80.46
2018-03-04T11:26:00.111Z,80.98
2018-03-04T11:27:00.100Z,81.07
2018-03-04T11:28:00.083Z,81.07
2018-03-04T11:29:00.016Z,81.07
2018-03-04T11:29:59.992Z,81.26
2018-03-04T11:30:59.947Z,80.98
2018-03-04T11:32:00.757Z,80.98
2018-03-04T11:32:59.904Z,80.88
2018-03-04T11:34:00.741Z,80.88
2018-03-04T11:34:59.857Z,81.07
2018-03-04T11:35:59.858Z,80.88
2018-03-04T11:36:59.768Z,81.07
2018-03-04T11:37:59.787Z,80.13
2018-03-04T11:38:59.746Z,80.13
2018-03-04T11:39:59.690Z,80.79
2018-03-04T11:40:59.706Z,80.60
2018-03-04T11:41:59.719Z,80.22
2018-03-04T11:42:59.686Z,80.32
2018-03-04T11:43:59.670Z,80.13
2018-03-04T11:44:59.577Z,80.60
2018-03-04T11:45:59.627Z,80.22
2018-03-04T11:46:59.628Z,80.41
2018-03-04T11:47:59.553Z,80.41
2018-03-04T11:48:59.456Z,80.13
2018-03-04T11:49:59.525Z,80.13
2018-03-04T11:50:59.421Z,80.13
2018-03-04T11:51:59.351Z,79.88
2018-03-04T11:52:59.342Z,79.79
2018-03-04T11:53:59.353Z,79.31
2018-03-04T11:54:59.263Z,79.41
2018-03-04T11:55:59.290Z,79.31
2018-03-04T11:56:59.254Z,79.41
2018-03-04T11:57:59.181Z,80.07
2018-03-04T11:58:59.189Z,79.79
2018-03-04T11:59:59.170Z,79.31
2018-03-04T12:00:59.133Z,79.50
2018-03-04T12:01:59.084Z,79.31
2018-03-04T12:02:59.096Z,79.22
2018-03-04T12:03:59.112Z,78.74
2018-03-04T12:04:59.019Z,79.79
2018-03-04T12:05:59.056Z,79.79
2018-03-04T12:06:58.939Z,79.50
2018-03-04T12:07:59.012Z,79.69
2018-03-04T12:08:58.880Z,79.60
2018-03-04T12:09:58.924Z,79.79
2018-03-04T12:10:58.843Z,78.93
2018-03-04T12:11:58.902Z,79.50
2018-03-04T12:12:58.807Z,79.88
2018-03-04T12:13:58.854Z,79.22
2018-03-04T12:14:58.718Z,79.22
2018-03-04T12:15:58.717Z,79.12
2018-03-04T12:16:58.701Z,79.31
2018-03-04T12:17:58.635Z,79.35
2018-03-04T12:18:58.611Z,79.35
2018-03-04T12:19:58.607Z,79.92
2018-03-04T12:20:58.576Z,79.16
2018-03-04T12:21:58.546Z,78.78
2018-03-04T12:22:58.511Z,78.97
2018-03-04T12:23:58.625Z,78.40
2018-03-04T12:24:58.452Z,78.30
2018-03-04T12:25:58.430Z,78.30
2018-03-04T12:26:58.389Z,78.40
2018-03-04T12:27:58.353Z,77.92
2018-03-04T12:28:58.363Z,77.92
2018-03-04T12:29:58.355Z,77.73
2018-03-04T12:30:58.366Z,78.88
2018-03-04T12:31:58.274Z,78.02
2018-03-04T12:32:58.223Z,78.50
2018-03-04T12:33:58.190Z,78.53
2018-03-04T12:34:58.206Z,78.30
2018-03-04T12:35:58.146Z,78.69
2018-03-04T12:36:58.138Z,78.53
2018-03-04T12:37:58.149Z,78.25
2018-03-04T12:38:58.093Z,78.06
2018-03-04T12:39:58.066Z,78.53
2018-03-04T12:40:58.041Z,77.97
2018-03-04T12:41:58.000Z,77.68
2018-03-04T12:42:57.949Z,78.16
2018-03-04T12:43:57.949Z,77.87
2018-03-04T12:44:57.912Z,77.87
2018-03-04T12:45:57.868Z,77.77
2018-03-04T12:46:57.856Z,77.77
2018-03-04T12:47:57.835Z,77.77
2018-03-04T12:48:57.789Z,77.30
2018-03-04T12:49:57.803Z,77.11
2018-03-04T12:50:57.792Z,77.11
2018-03-04T12:51:57.708Z,77.01
2018-03-04T12:52:57.718Z,76.92
2018-03-04T12:53:57.682Z,76.44
2018-03-04T12:54:57.640Z,77.15
2018-03-04T12:55:57.619Z,76.76